Time;durP1;ratioP1;P1;durP2;ratioP2;P2;SDS_P1;SDS_P2;PMS_P1;PMS_P2;Temp;Humidity;BMP_temperature;BMP_pressure;BME280_temperature;BME280_humidity;BME280_pressure;Samples;Min_cycle;Max_cycle;Signal;HPM_P1;HPM_P2
2022/12/22 03:27:47;;;;;;;1.67;0.60;;;;;;;7.34;100.00;95092.41;5069962;28;20687;-72
2022/12/22 03:30:14;;;;;;;1.35;0.55;;;;;;;7.36;100.00;95098.28;5053257;28;24438;-72
2022/12/22 03:32:42;;;;;;;1.55;0.45;;;;;;;7.39;100.00;95098.09;5054687;28;24433;-72
2022/12/22 03:35:09;;;;;;;1.30;0.50;;;;;;;7.39;100.00;95094.69;5057769;28;24431;-72
2022/12/22 03:37:35;;;;;;;1.05;0.60;;;;;;;7.35;100.00;95094.06;5055811;28;24443;-72
2022/12/22 03:40:02;;;;;;;1.10;0.50;;;;;;;7.39;100.00;95095.53;5069395;28;21357;-72
2022/12/22 03:48:00;;;;;;;0.88;0.50;;;;;;;7.25;100.00;95092.94;5029796;28;24549;-72
2022/12/22 03:50:27;;;;;;;0.97;0.50;;;;;;;7.21;100.00;95087.16;5039652;28;24461;-72
2022/12/22 03:52:53;;;;;;;2.85;0.60;;;;;;;7.17;100.00;95085.69;5052840;28;24435;-72
2022/12/22 03:55:19;;;;;;;1.75;0.60;;;;;;;7.21;100.00;95087.16;5061923;28;24435;-72
2022/12/22 03:57:46;;;;;;;2.42;0.70;;;;;;;7.23;100.00;95084.47;5061958;28;24447;-72
2022/12/22 04:00:13;;;;;;;2.17;0.60;;;;;;;7.25;100.00;95082.66;5049292;28;20775;-72
2022/12/22 04:02:40;;;;;;;1.23;0.70;;;;;;;7.24;100.00;95092.13;5064201;28;24980;-72
2022/12/22 04:05:09;;;;;;;2.42;0.80;;;;;;;7.30;100.00;95092.66;5060080;28;24438;-72
2022/12/22 04:07:35;;;;;;;1.75;0.57;;;;;;;7.32;100.00;95099.38;5061555;28;20779;-72
2022/12/22 04:12:55;;;;;;;0.88;0.47;;;;;;;7.23;100.00;95087.91;5073237;28;25010;-72
2022/12/22 04:15:22;;;;;;;1.35;0.60;;;;;;;7.34;100.00;95082.09;5053776;28;20693;-72
2022/12/22 04:17:48;;;;;;;1.77;0.60;;;;;;;7.38;100.00;95083.56;5053003;28;25008;-72
2022/12/22 04:20:16;;;;;;;3.17;0.98;;;;;;;7.47;100.00;95075.25;5061317;28;24459;-72
2022/12/22 04:22:43;;;;;;;2.10;0.77;;;;;;;7.42;100.00;95069.56;5060535;28;20773;-72
2022/12/22 04:25:10;;;;;;;1.83;0.60;;;;;;;7.41;100.00;95060.16;5073091;28;24418;-72
2022/12/22 04:27:37;;;;;;;3.83;1.00;;;;;;;7.46;100.00;95057.34;5066658;28;24495;-72
2022/12/22 04:30:04;;;;;;;2.72;0.65;;;;;;;7.42;100.00;95063.59;5068685;28;24995;-72
2022/12/22 04:32:31;;;;;;;3.40;0.95;;;;;;;7.44;100.00;95064.31;5053900;28;24446;-72
2022/12/22 04:34:57;;;;;;;3.95;1.10;;;;;;;7.42;100.00;95061.84;5058629;28;24439;-72
2022/12/22 04:37:25;;;;;;;3.60;1.08;;;;;;;7.40;100.00;95061.09;5051954;28;24439;-72
2022/12/22 04:39:51;;;;;;;4.72;0.90;;;;;;;7.38;100.00;95046.66;5069735;28;20793;-72
2022/12/22 04:42:18;;;;;;;2.45;1.08;;;;;;;7.39;100.00;95056.06;5056113;28;24442;-72
2022/12/22 04:44:44;;;;;;;4.35;1.30;;;;;;;7.44;100.00;95051.44;5060040;28;24447;-72
2022/12/22 04:47:11;;;;;;;3.63;1.00;;;;;;;7.39;100.00;95062.03;5051679;28;24439;-72
2022/12/22 04:49:37;;;;;;;2.13;0.90;;;;;;;7.35;100.00;95059.75;5052143;28;24439;-72
2022/12/22 04:52:04;;;;;;;2.73;1.00;;;;;;;7.35;100.00;95049.44;5052426;28;24512;-72
2022/12/22 04:54:32;;;;;;;2.15;0.90;;;;;;;7.33;100.00;95054.66;5052311;28;20802;-72
2022/12/22 04:56:59;;;;;;;2.33;0.80;;;;;;;7.32;100.00;95053.03;5068912;28;20784;-72
2022/12/22 04:59:26;;;;;;;2.22;0.70;;;;;;;7.28;100.00;95047.22;5060271;28;24462;-72
2022/12/22 05:01:52;;;;;;;3.30;1.10;;;;;;;7.30;100.00;95051.44;5041145;28;24444;-72
2022/12/22 05:04:19;;;;;;;2.08;0.80;;;;;;;7.37;100.00;95050.97;5072012;28;24441;-72
2022/12/22 05:06:45;;;;;;;1.25;0.70;;;;;;;7.32;100.00;95040.13;5056645;28;24435;-72
2022/12/22 05:09:12;;;;;;;2.28;1.08;;;;;;;7.38;100.00;95044.94;5059947;28;25857;-73
2022/12/22 05:11:40;;;;;;;4.25;1.00;;;;;;;7.35;100.00;95050.25;5051087;28;25270;-72
2022/12/22 05:14:06;;;;;;;2.88;0.90;;;;;;;7.32;100.00;95052.19;5062098;28;20784;-72
2022/12/22 05:16:32;;;;;;;4.28;0.98;;;;;;;7.37;100.00;95057.88;5057369;28;24446;-72
2022/12/22 05:18:59;;;;;;;2.95;0.80;;;;;;;7.35;100.00;95052.00;5059956;28;24462;-72
2022/12/22 05:21:25;;;;;;;4.05;1.02;;;;;;;7.36;100.00;95046.75;5064804;28;24439;-72
2022/12/22 05:23:52;;;;;;;1.73;0.70;;;;;;;7.40;100.00;95049.97;5055167;28;24442;-72
2022/12/22 05:26:19;;;;;;;1.65;0.68;;;;;;;7.44;100.00;95057.41;5069763;28;25165;-72
2022/12/22 05:28:47;;;;;;;2.30;0.80;;;;;;;7.41;100.00;95054.19;5066617;28;24508;-72
2022/12/22 05:31:16;;;;;;;2.85;0.85;;;;;;;7.49;100.00;95060.53;5060044;28;20812;-72
2022/12/22 05:33:43;;;;;;;1.25;0.60;;;;;;;7.56;100.00;95063.53;5058355;28;24998;-72
2022/12/22 05:36:09;;;;;;;3.28;0.70;;;;;;;7.56;100.00;95060.16;5058896;28;24454;-72
2022/12/22 05:38:36;;;;;;;1.67;0.63;;;;;;;7.56;100.00;95052.41;5058762;28;24837;-72
2022/12/22 05:41:02;;;;;;;1.98;0.82;;;;;;;7.57;100.00;95051.50;5055536;28;24430;-72
2022/12/22 05:43:29;;;;;;;2.30;0.90;;;;;;;7.57;100.00;95052.34;5042020;28;24436;-72
2022/12/22 05:45:57;;;;;;;2.53;0.73;;;;;;;7.60;100.00;95041.00;5039681;28;24515;-71
2022/12/22 05:48:24;;;;;;;3.92;1.10;;;;;;;7.59;100.00;95029.84;5042154;28;20863;-71
2022/12/22 05:50:50;;;;;;;1.98;0.80;;;;;;;7.62;100.00;95039.16;5045214;28;24435;-71
2022/12/22 05:53:17;;;;;;;1.85;0.75;;;;;;;7.51;100.00;95040.66;5047493;28;24443;-71
2022/12/22 05:55:43;;;;;;;4.82;1.23;;;;;;;7.63;100.00;95041.63;5058722;28;24431;-72
2022/12/22 05:58:10;;;;;;;3.30;1.10;;;;;;;7.53;100.00;95045.72;5060624;28;24441;-72
2022/12/22 06:00:36;;;;;;;3.70;0.90;;;;;;;7.44;100.00;95049.69;5063739;28;20798;-72
2022/12/22 06:03:04;;;;;;;3.20;1.02;;;;;;;7.49;100.00;95050.25;5043584;28;21332;-72
2022/12/22 06:05:30;;;;;;;3.47;1.10;;;;;;;7.54;100.00;95041.41;5044757;28;20818;-72
2022/12/22 06:07:57;;;;;;;2.83;1.00;;;;;;;7.54;100.00;95041.41;5051830;28;24435;-72
2022/12/22 06:10:24;;;;;;;6.63;1.48;;;;;;;7.61;100.00;95029.78;5066219;28;20762;-72
2022/12/22 06:12:50;;;;;;;4.32;1.42;;;;;;;7.57;100.00;95036.06;5051053;28;21138;-72
2022/12/22 06:15:17;;;;;;;5.93;1.77;;;;;;;7.51;100.00;95030.34;5050763;28;24645;-72
2022/12/22 06:17:43;;;;;;;4.33;1.37;;;;;;;7.60;100.00;95035.84;5059144;28;20778;-72
2022/12/22 06:20:12;;;;;;;7.68;1.95;;;;;;;7.62;100.00;95039.97;5069111;28;25203;-72
2022/12/22 06:22:39;;;;;;;5.88;1.80;;;;;;;7.65;100.00;95026.91;5055505;28;20837;-72
2022/12/22 06:25:06;;;;;;;6.35;1.75;;;;;;;7.63;100.00;95028.75;5042112;28;20771;-72
2022/12/22 06:27:33;;;;;;;5.15;1.63;;;;;;;7.72;100.00;95028.19;5055595;28;20769;-72
2022/12/22 06:29:59;;;;;;;6.93;1.90;;;;;;;7.65;100.00;95033.81;5053370;28;24998;-72
2022/12/22 06:32:25;;;;;;;5.07;1.40;;;;;;;7.64;100.00;95034.72;5052524;28;25071;-73
2022/12/22 06:34:52;;;;;;;7.90;2.03;;;;;;;7.54;100.00;95039.63;5052574;28;24983;-75
2022/12/22 06:37:20;;;;;;;5.63;1.67;;;;;;;7.63;100.00;95040.81;5044253;28;24446;-73
2022/12/22 06:39:46;;;;;;;6.15;1.67;;;;;;;7.56;100.00;95036.97;5059653;28;24461;-73
2022/12/22 06:44:57;;;;;;;7.03;1.92;;;;;;;7.56;100.00;95039.53;5061556;28;20903;-73
2022/12/22 06:47:23;;;;;;;6.97;2.00;;;;;;;7.63;100.00;95048.53;5061807;28;24435;-73
2022/12/22 06:49:50;;;;;;;14.77;2.42;;;;;;;7.60;100.00;95041.00;5062579;28;20777;-72
2022/12/22 06:52:16;;;;;;;8.95;2.15;;;;;;;7.59;100.00;95042.75;5061587;28;20769;-72
2022/12/22 06:54:44;;;;;;;9.52;1.83;;;;;;;7.49;100.00;95037.34;5063106;28;20769;-72
2022/12/22 06:57:10;;;;;;;10.07;4.87;;;;;;;7.46;100.00;95039.28;5059729;28;25064;-68
2022/12/22 06:59:37;;;;;;;8.60;3.67;;;;;;;7.51;100.00;95044.97;5051169;28;24814;-74
2022/12/22 07:02:03;;;;;;;11.60;3.38;;;;;;;7.52;100.00;95029.41;5049523;28;24845;-73
2022/12/22 07:04:30;;;;;;;7.90;3.13;;;;;;;7.53;100.00;95027.69;5050717;28;20779;-73
2022/12/22 07:06:57;;;;;;;6.73;2.23;;;;;;;7.42;100.00;95023.19;5050119;28;21412;-74
2022/12/22 07:09:23;;;;;;;6.80;2.00;;;;;;;7.40;100.00;95019.06;5056082;28;20767;-73
2022/12/22 07:11:51;;;;;;;6.03;1.77;;;;;;;7.33;100.00;95039.22;5049230;28;24449;-73
2022/12/22 07:14:17;;;;;;;8.32;2.10;;;;;;;7.31;100.00;95042.81;5052423;28;20810;-73
2022/12/22 07:16:45;;;;;;;6.93;2.97;;;;;;;7.32;100.00;95044.47;5060166;28;24446;-73
2022/12/22 07:19:12;;;;;;;7.10;2.30;;;;;;;7.33;100.00;95066.72;5059581;28;25077;-72
2022/12/22 07:21:39;;;;;;;9.88;2.30;;;;;;;7.35;100.00;95083.75;5052737;28;24794;-72
2022/12/22 07:24:06;;;;;;;5.05;1.77;;;;;;;7.42;100.00;95094.50;5052690;28;20771;-74
2022/12/22 07:26:32;;;;;;;5.95;2.15;;;;;;;7.46;100.00;95107.09;5061858;28;21377;-72
2022/12/22 07:29:00;;;;;;;6.40;2.00;;;;;;;7.41;100.00;95101.38;5057546;28;24973;-73
2022/12/22 07:31:27;;;;;;;7.15;2.20;;;;;;;7.53;100.00;95110.16;5063248;28;20808;-74
2022/12/22 07:33:53;;;;;;;10.32;2.30;;;;;;;7.56;100.00;95091.88;5051870;28;24446;-74
2022/12/22 07:36:20;;;;;;;4.82;1.83;;;;;;;7.47;100.00;95100.19;5050567;28;24505;-74
2022/12/22 07:38:48;;;;;;;6.10;1.77;;;;;;;7.45;100.00;95112.34;5052254;28;24458;-75
2022/12/22 07:44:03;;;;;;;8.70;2.97;;;;;;;7.44;100.00;95051.44;5062348;28;21460;-74
2022/12/22 07:46:33;;;;;;;5.25;2.08;;;;;;;7.37;100.00;95078.50;5051286;28;20812;-74
2022/12/22 07:51:44;;;;;;;6.05;1.95;;;;;;;7.30;100.00;95085.75;5048942;28;20857;-74
2022/12/22 07:54:13;;;;;;;4.13;1.70;;;;;;;7.23;100.00;95085.31;5053708;28;24444;-75
2022/12/22 07:56:40;;;;;;;7.82;2.30;;;;;;;7.22;100.00;95083.66;5061989;28;20777;-74
2022/12/22 07:59:08;;;;;;;7.28;2.22;;;;;;;7.15;100.00;95076.38;5060191;28;24450;-73
2022/12/22 08:01:34;;;;;;;5.85;2.03;;;;;;;7.16;100.00;95094.34;5057425;28;20774;-73
2022/12/22 08:04:01;;;;;;;4.75;2.50;;;;;;;7.15;100.00;95084.13;5056520;28;24470;-75
2022/12/22 08:06:28;;;;;;;6.22;3.05;;;;;;;7.26;100.00;95090.25;5055478;28;20885;-73
2022/12/22 08:08:54;;;;;;;5.18;2.03;;;;;;;7.20;100.00;95079.53;5053079;28;24431;-71
2022/12/22 08:11:21;;;;;;;7.10;2.80;;;;;;;7.20;100.00;95082.09;5054092;28;24435;-71
2022/12/22 08:13:48;;;;;;;5.70;2.53;;;;;;;7.19;100.00;95072.69;5054168;28;20775;-73
2022/12/22 08:16:19;;;;;;;6.03;2.88;;;;;;;7.22;100.00;95075.09;5055785;28;24537;-75
2022/12/22 08:18:45;;;;;;;10.40;2.63;;;;;;;7.36;100.00;95077.66;5054980;28;21821;-74
2022/12/22 08:21:12;;;;;;;11.02;3.10;;;;;;;7.43;100.00;95067.81;5050818;28;24486;-74
2022/12/22 08:23:39;;;;;;;7.63;2.85;;;;;;;7.47;100.00;95064.13;5043913;28;20788;-74
2022/12/22 08:26:13;;;;;;;8.35;2.53;;;;;;;7.50;100.00;95061.38;5056007;28;24446;-74
2022/12/22 08:28:45;;;;;;;8.13;2.33;;;;;;;7.57;100.00;95064.41;5063500;28;21427;-74
2022/12/22 08:31:12;;;;;;;7.68;2.05;;;;;;;7.51;100.00;95066.41;5062057;28;20692;-74
2022/12/22 08:33:40;;;;;;;5.63;2.00;;;;;;;7.50;100.00;95058.78;5063912;28;20776;-73
2022/12/22 08:36:08;;;;;;;9.43;2.17;;;;;;;7.55;100.00;95064.47;5058499;28;20770;-73
2022/12/22 08:38:36;;;;;;;8.53;2.23;;;;;;;7.62;100.00;95070.91;5063446;28;20809;-74
2022/12/22 08:41:03;;;;;;;7.10;1.70;;;;;;;7.74;100.00;95072.72;5061101;28;20829;-73
2022/12/22 08:43:31;;;;;;;10.73;2.42;;;;;;;7.78;100.00;95067.38;5063716;28;24434;-73
2022/12/22 08:45:57;;;;;;;9.68;2.30;;;;;;;7.92;100.00;95063.00;5057864;28;20783;-74
2022/12/22 08:48:23;;;;;;;9.38;2.05;;;;;;;8.03;100.00;95069.22;5067398;28;20767;-73
2022/12/22 08:50:51;;;;;;;10.60;2.13;;;;;;;8.11;100.00;95078.13;5053148;28;20770;-73
2022/12/22 08:53:18;;;;;;;9.82;2.22;;;;;;;8.16;100.00;95083.81;5047818;28;20807;-73
2022/12/22 08:55:51;;;;;;;12.95;2.30;;;;;;;8.13;100.00;95081.44;5060870;28;21133;-73
2022/12/22 08:58:18;;;;;;;7.80;2.38;;;;;;;8.02;100.00;95098.53;5052675;28;20860;-74
2022/12/22 09:00:44;;;;;;;12.05;2.58;;;;;;;7.90;100.00;95103.53;5058723;28;21355;-74
2022/12/22 09:03:11;;;;;;;9.25;2.72;;;;;;;7.87;100.00;95100.31;5051776;28;24802;-74
2022/12/22 09:05:38;;;;;;;8.65;2.80;;;;;;;7.74;100.00;95110.56;5053252;28;24436;-74
2022/12/22 09:08:06;;;;;;;11.20;2.53;;;;;;;7.67;100.00;95104.13;5067417;28;24861;-74
2022/12/22 09:10:32;;;;;;;13.63;2.90;;;;;;;7.65;100.00;95106.81;5051375;28;20812;-74
2022/12/22 09:12:59;;;;;;;8.65;1.95;;;;;;;7.56;100.00;95109.09;5060676;28;24442;-74
2022/12/22 09:15:25;;;;;;;10.95;2.28;;;;;;;7.57;100.00;95121.09;5054496;28;20771;-75
2022/12/22 09:17:52;;;;;;;7.05;2.03;;;;;;;7.53;100.00;95120.44;5058834;28;20775;-75
2022/12/22 09:20:18;;;;;;;6.43;2.15;;;;;;;7.50;100.00;95116.31;5063219;28;24473;-75
2022/12/22 09:22:45;;;;;;;8.13;1.95;;;;;;;7.48;100.00;95105.25;5065686;28;20765;-75
2022/12/22 09:25:13;;;;;;;7.57;2.53;;;;;;;7.47;100.00;95118.22;5071870;28;24423;-74
2022/12/22 09:27:39;;;;;;;5.57;2.30;;;;;;;7.41;100.00;95110.88;5065457;28;20775;-75
2022/12/22 09:30:07;;;;;;;7.95;1.98;;;;;;;7.39;100.00;95105.00;5051811;28;24427;-75
2022/12/22 09:32:33;;;;;;;6.97;2.20;;;;;;;7.39;100.00;95108.41;5051172;28;24431;-75
2022/12/22 09:35:00;;;;;;;4.95;2.10;;;;;;;7.43;100.00;95107.28;5052560;28;24431;-75
2022/12/22 09:37:26;;;;;;;5.97;1.93;;;;;;;7.45;100.00;95112.34;5057823;28;24948;-75
2022/12/22 09:39:53;;;;;;;8.93;2.08;;;;;;;7.38;100.00;95114.47;5066524;28;24805;-74
2022/12/22 09:42:22;;;;;;;4.28;1.42;;;;;;;7.34;100.00;95114.72;5051623;28;24462;-74
2022/12/22 09:44:50;;;;;;;5.72;1.63;;;;;;;7.35;100.00;95108.69;5067337;28;24439;-74
2022/12/22 09:47:22;;;;;;;5.80;1.52;;;;;;;7.37;100.00;95106.81;5059763;28;20775;-74
2022/12/22 09:49:49;;;;;;;3.92;1.60;;;;;;;7.33;100.00;95111.34;5067146;28;20699;-74
2022/12/22 09:52:28;;;;;;;3.92;1.48;;;;;;;7.41;100.00;95114.25;5071496;28;24422;-74
2022/12/22 09:54:55;;;;;;;6.65;2.90;;;;;;;7.38;100.00;95118.78;5054423;28;24454;-75
2022/12/22 09:57:29;;;;;;;11.68;2.40;;;;;;;7.32;100.00;95112.25;5051370;28;24412;-74
2022/12/22 09:59:57;;;;;;;7.88;1.50;;;;;;;7.26;100.00;95116.03;5051153;28;20754;-75
2022/12/22 10:02:33;;;;;;;2.95;1.40;;;;;;;7.30;100.00;95113.25;5037391;28;20790;-74
2022/12/22 10:05:13;;;;;;;8.57;1.48;;;;;;;7.37;100.00;95123.09;5058726;28;20748;-73
2022/12/22 10:07:41;;;;;;;4.25;1.55;;;;;;;7.41;100.00;95122.00;5062631;28;20761;-73
2022/12/22 10:10:15;;;;;;;2.50;1.13;;;;;;;7.51;100.00;95122.28;5061284;28;20918;-73
2022/12/22 10:12:43;;;;;;;4.15;1.58;;;;;;;7.52;100.00;95123.91;5055089;28;20764;-73
2022/12/22 10:15:12;;;;;;;3.45;1.10;;;;;;;7.50;100.00;95126.59;5062165;28;24430;-74
2022/12/22 10:17:39;;;;;;;3.37;1.40;;;;;;;7.49;100.00;95127.53;5051804;28;20756;-74
2022/12/22 10:20:20;;;;;;;4.83;1.43;;;;;;;7.46;100.00;95143.19;5054193;28;21320;-74
2022/12/22 10:22:49;;;;;;;4.37;1.47;;;;;;;7.51;100.00;95143.72;5061459;28;21262;-74
2022/12/22 10:25:32;;;;;;;3.75;1.35;;;;;;;7.59;100.00;95142.44;5057467;28;21319;-75
2022/12/22 10:28:02;;;;;;;2.50;0.90;;;;;;;7.62;100.00;95150.78;5047507;28;21422;-73
2022/12/22 10:30:33;;;;;;;3.38;1.13;;;;;;;7.69;100.00;95154.66;5052479;28;20674;-74
2022/12/22 10:33:04;;;;;;;5.95;1.33;;;;;;;7.70;100.00;95146.00;5054237;28;20828;-74
2022/12/22 10:35:47;;;;;;;2.88;1.02;;;;;;;7.71;100.00;95157.13;5056446;28;20677;-74
2022/12/22 10:38:17;;;;;;;4.30;1.25;;;;;;;7.73;100.00;95161.28;5041424;28;20723;-73
2022/12/22 10:40:46;;;;;;;3.10;1.13;;;;;;;7.87;100.00;95149.31;5065194;28;20727;-74
2022/12/22 10:43:20;;;;;;;3.33;1.15;;;;;;;7.94;100.00;95151.41;5088202;28;20812;-74
2022/12/22 10:45:48;;;;;;;2.25;1.00;;;;;;;7.97;100.00;95152.94;5059585;28;20662;-74
2022/12/22 10:48:15;;;;;;;2.30;0.90;;;;;;;8.05;100.00;95163.63;5083707;28;20752;-74
2022/12/22 10:50:46;;;;;;;2.47;1.02;;;;;;;8.02;100.00;95163.81;5090290;28;20752;-74
2022/12/22 10:53:14;;;;;;;4.22;1.05;;;;;;;8.08;100.00;95180.63;5070103;28;24443;-74
2022/12/22 10:55:43;;;;;;;2.40;0.95;;;;;;;8.09;100.00;95174.59;5085327;28;24446;-74
2022/12/22 10:58:20;;;;;;;3.33;1.05;;;;;;;8.02;100.00;95178.47;5087243;28;20860;-73
2022/12/22 11:01:01;;;;;;;2.00;0.80;;;;;;;8.07;100.00;95171.25;5072204;28;24537;-74
2022/12/22 11:03:29;;;;;;;3.58;0.77;;;;;;;8.07;100.00;95168.69;5076173;28;20749;-75
2022/12/22 11:05:56;;;;;;;1.50;0.60;;;;;;;8.00;100.00;95176.78;5078536;28;20840;-74
2022/12/22 11:08:25;;;;;;;2.35;0.77;;;;;;;8.02;100.00;95163.00;5070287;28;24458;-74
2022/12/22 11:10:54;;;;;;;3.17;0.80;;;;;;;7.95;100.00;95175.44;5078543;28;20759;-74
2022/12/22 11:13:44;;;;;;;2.43;1.10;;;;;;;7.91;100.00;95171.38;5077830;28;20769;-74
2022/12/22 11:16:18;;;;;;;4.35;1.60;;;;;;;7.91;100.00;95171.38;5069004;28;21390;-74
2022/12/22 11:19:03;;;;;;;3.22;1.30;;;;;;;7.92;100.00;95165.31;5069953;28;24430;-74
2022/12/22 11:21:38;;;;;;;5.32;1.98;;;;;;;7.92;100.00;95175.63;5076093;28;20694;-74
2022/12/22 11:24:20;;;;;;;5.18;2.17;;;;;;;7.89;100.00;95171.47;5090136;28;20691;-74
2022/12/22 11:26:55;;;;;;;4.03;1.47;;;;;;;7.97;100.00;95184.75;5088949;28;20701;-74
2022/12/22 11:29:45;;;;;;;3.90;1.60;;;;;;;7.92;100.00;95194.50;5066219;28;20763;-74
2022/12/22 11:32:31;;;;;;;4.63;1.55;;;;;;;7.96;100.00;95171.91;5078526;28;21424;-74
2022/12/22 11:35:07;;;;;;;3.15;1.00;;;;;;;8.04;100.00;95166.28;5087227;28;20675;-74
2022/12/22 11:37:44;;;;;;;3.60;1.90;;;;;;;8.02;100.00;95163.81;5075641;28;21197;-75
2022/12/22 11:40:26;;;;;;;4.00;1.58;;;;;;;7.99;100.00;95169.97;5072001;28;20798;-74
2022/12/22 11:43:09;;;;;;;2.97;1.00;;;;;;;8.14;100.00;95168.19;5081732;28;21095;-74
2022/12/22 11:46:11;;;;;;;3.97;1.23;;;;;;;8.21;100.00;95160.91;5077551;28;20730;-74
2022/12/22 11:48:52;;;;;;;3.63;1.15;;;;;;;8.36;100.00;95165.09;5072527;28;20701;-75
2022/12/22 11:51:30;;;;;;;2.60;0.98;;;;;;;8.39;100.00;95162.34;5083043;28;21085;-74
2022/12/22 11:54:13;;;;;;;4.85;1.25;;;;;;;8.36;100.00;95154.78;5078411;28;20765;-75
2022/12/22 11:56:42;;;;;;;2.65;1.10;;;;;;;8.34;100.00;95161.75;5087660;28;20779;-75
2022/12/22 11:59:30;;;;;;;3.45;1.00;;;;;;;8.36;100.00;95154.78;5086476;28;20756;-74
2022/12/22 12:02:24;;;;;;;2.63;1.10;;;;;;;8.44;100.00;95162.06;5081803;28;24450;-74
2022/12/22 12:05:19;;;;;;;5.47;0.90;;;;;;;8.42;100.00;95149.25;5080803;28;24446;-74
2022/12/22 12:07:50;;;;;;;3.33;1.10;;;;;;;8.61;100.00;95179.06;5075517;28;20801;-74
2022/12/22 12:10:22;;;;;;;3.58;1.20;;;;;;;8.65;100.00;95171.00;5076962;28;21080;-74
2022/12/22 12:12:56;;;;;;;3.47;1.33;;;;;;;8.71;100.00;95169.75;5068298;28;20737;-74
2022/12/22 12:15:31;;;;;;;2.80;1.00;;;;;;;8.76;100.00;95182.41;5077399;28;20655;-74
2022/12/22 12:18:34;;;;;;;2.90;1.20;;;;;;;8.77;100.00;95174.53;5079659;28;21193;-74
2022/12/22 12:21:21;;;;;;;2.95;1.33;;;;;;;8.89;100.00;95176.31;5081639;28;21281;-73
2022/12/22 12:24:15;;;;;;;4.07;1.08;;;;;;;8.92;100.00;95186.44;5064793;28;20859;-73
2022/12/22 12:26:52;;;;;;;3.95;2.00;;;;;;;8.84;100.00;95183.53;5073613;28;20697;-72
2022/12/22 12:29:20;;;;;;;6.80;1.58;;;;;;;8.75;100.00;95180.72;5064156;28;24452;-71
2022/12/22 12:31:53;;;;;;;4.07;1.92;;;;;;;8.76;100.00;95179.81;5077489;28;24438;-72
2022/12/22 12:34:22;;;;;;;4.32;1.75;;;;;;;8.66;100.00;95185.56;5067320;28;20801;-72
2022/12/22 12:36:56;;;;;;;7.68;3.30;;;;;;;8.71;100.00;95198.16;5086778;28;24457;-74
2022/12/22 12:39:28;;;;;;;4.00;1.53;;;;;;;8.76;100.00;95203.88;5068940;28;20751;-74
2022/12/22 12:42:04;;;;;;;3.27;1.23;;;;;;;8.82;100.00;95194.88;5077158;28;24443;-73
2022/12/22 12:44:34;;;;;;;2.90;1.40;;;;;;;8.85;100.00;95199.84;5070566;28;20679;-73
2022/12/22 12:47:21;;;;;;;2.90;1.17;;;;;;;8.77;100.00;95179.69;5082057;28;20764;-73
2022/12/22 12:50:00;;;;;;;5.15;1.60;;;;;;;8.73;100.00;95198.91;5075613;28;20867;-74
2022/12/22 12:53:15;;;;;;;4.60;1.58;;;;;;;8.76;100.00;95197.88;5070790;28;20724;-74
2022/12/22 12:55:53;;;;;;;4.60;1.42;;;;;;;8.79;100.00;95188.19;5078823;28;20736;-74
2022/12/22 12:58:50;;;;;;;3.83;1.05;;;;;;;8.84;100.00;95201.63;5082771;28;20751;-74
2022/12/22 13:01:53;;;;;;;5.10;1.40;;;;;;;8.92;100.00;95201.13;5083445;28;24452;-74
2022/12/22 13:04:53;;;;;;;5.43;1.40;;;;;;;9.01;100.00;95205.69;5039417;28;20700;-73
2022/12/22 13:07:52;;;;;;;3.80;1.20;;;;;;;9.01;100.00;95217.75;5064666;28;20675;-74
2022/12/22 13:10:22;;;;;;;4.22;1.20;;;;;;;9.04;100.00;95220.97;5078873;28;24436;-74
2022/12/22 13:12:50;;;;;;;3.45;1.27;;;;;;;9.09;100.00;95231.84;5069841;28;24976;-74
2022/12/22 13:15:28;;;;;;;3.90;1.50;;;;;;;9.06;100.00;95228.63;5075787;28;24438;-74
2022/12/22 13:17:55;;;;;;;3.40;1.30;;;;;;;9.04;100.00;95243.38;5080014;28;24435;-74
2022/12/22 13:20:25;;;;;;;7.40;1.40;;;;;;;8.98;100.00;95249.78;5076890;28;25133;-74
2022/12/22 13:22:54;;;;;;;5.00;1.50;;;;;;;9.00;100.00;95257.44;5079576;28;24579;-74
2022/12/22 13:25:24;;;;;;;6.23;1.60;;;;;;;8.91;100.00;95248.53;5079284;28;24437;-74
2022/12/22 13:27:51;;;;;;;4.68;1.48;;;;;;;8.98;100.00;95260.13;5083464;28;24437;-74
2022/12/22 13:30:20;;;;;;;6.40;1.42;;;;;;;8.87;100.00;95254.81;5083119;28;24442;-74
2022/12/22 13:32:49;;;;;;;4.68;1.30;;;;;;;8.80;100.00;95249.22;5078948;28;20843;-74
2022/12/22 13:35:20;;;;;;;3.63;1.10;;;;;;;8.73;100.00;95247.94;5087427;28;20763;-74
2022/12/22 13:37:48;;;;;;;2.88;1.13;;;;;;;8.77;100.00;95252.00;5081274;28;20675;-74
2022/12/22 13:40:18;;;;;;;3.30;1.13;;;;;;;8.72;100.00;95249.72;5082907;28;20812;-74
2022/12/22 13:42:49;;;;;;;3.78;1.30;;;;;;;8.66;100.00;95252.66;5082183;28;24458;-74
2022/12/22 13:45:32;;;;;;;5.85;1.75;;;;;;;8.61;100.00;95261.66;5075178;28;21284;-74
2022/12/22 13:48:04;;;;;;;2.67;1.13;;;;;;;8.63;100.00;95265.78;5081642;28;24438;-74
2022/12/22 13:50:34;;;;;;;5.10;1.52;;;;;;;8.66;100.00;95264.75;5075093;28;20688;-74
2022/12/22 13:53:04;;;;;;;4.43;1.48;;;;;;;8.59;100.00;95264.31;5071543;28;21102;-74
2022/12/22 13:55:32;;;;;;;8.33;1.57;;;;;;;8.63;100.00;95278.69;5081002;28;20779;-74
2022/12/22 13:58:06;;;;;;;6.63;1.80;;;;;;;8.58;100.00;95285.06;5077126;28;24443;-74
2022/12/22 14:00:33;;;;;;;4.57;1.50;;;;;;;8.62;100.00;95287.34;5083760;28;20717;-74
2022/12/22 14:03:00;;;;;;;8.82;1.77;;;;;;;8.62;100.00;95279.59;5081431;28;20800;-73
2022/12/22 14:05:31;;;;;;;6.70;2.00;;;;;;;8.62;100.00;95291.69;5087418;28;24438;-74
2022/12/22 14:08:00;;;;;;;8.82;2.40;;;;;;;8.64;100.00;95288.09;5079606;28;21317;-74
2022/12/22 14:10:30;;;;;;;9.57;2.53;;;;;;;8.62;100.00;95278.78;5080843;28;20859;-73
2022/12/22 14:12:56;;;;;;;8.27;2.33;;;;;;;8.62;100.00;95283.94;5082066;28;20885;-74
2022/12/22 14:15:24;;;;;;;8.13;3.00;;;;;;;8.66;100.00;95283.66;5085172;28;25006;-74
2022/12/22 14:17:51;;;;;;;10.50;2.67;;;;;;;8.55;100.00;95280.09;5085426;28;20813;-74
2022/12/22 14:20:20;;;;;;;8.50;2.50;;;;;;;8.62;100.00;95286.53;5082587;28;21181;-74
2022/12/22 14:22:54;;;;;;;10.07;2.88;;;;;;;8.55;100.00;95282.66;5079220;28;20786;-74
2022/12/22 14:25:24;;;;;;;9.32;2.65;;;;;;;8.54;100.00;95292.16;5066850;28;20786;-73
2022/12/22 14:27:53;;;;;;;18.52;3.30;;;;;;;8.51;100.00;95297.53;5071099;28;20772;-74
2022/12/22 14:30:21;;;;;;;8.00;2.50;;;;;;;8.52;100.00;95295.75;5075667;28;21180;-74
2022/12/22 14:32:51;;;;;;;11.25;3.25;;;;;;;8.47;100.00;95296.06;5078877;28;20776;-75
2022/12/22 14:35:25;;;;;;;10.70;2.85;;;;;;;8.40;100.00;95294.78;5072932;28;20721;-75
2022/12/22 14:37:53;;;;;;;10.68;3.00;;;;;;;8.40;100.00;95295.59;5085245;28;20766;-75
2022/12/22 14:40:31;;;;;;;8.23;2.40;;;;;;;8.35;100.00;95296.78;5076675;28;20810;-74
2022/12/22 14:42:59;;;;;;;8.40;2.60;;;;;;;8.43;100.00;95305.75;5079221;28;20678;-74
2022/12/22 14:45:26;;;;;;;9.57;2.75;;;;;;;8.38;100.00;95297.47;5077069;28;20777;-74
2022/12/22 14:47:55;;;;;;;10.93;2.70;;;;;;;8.36;100.00;95313.91;5086265;28;25023;-74
2022/12/22 14:50:24;;;;;;;10.18;2.63;;;;;;;8.41;100.00;95297.25;5076213;28;20759;-74
2022/12/22 14:52:53;;;;;;;9.63;2.70;;;;;;;8.35;100.00;95304.53;5083722;28;20811;-74
2022/12/22 14:55:27;;;;;;;10.02;2.88;;;;;;;8.27;100.00;95312.75;5077273;28;20808;-74
2022/12/22 14:57:56;;;;;;;10.57;2.60;;;;;;;8.35;100.00;95304.53;5076325;28;20778;-74
2022/12/22 15:00:31;;;;;;;10.25;2.80;;;;;;;8.32;100.00;95312.44;5079267;28;20724;-74
2022/12/22 15:03:01;;;;;;;14.18;3.15;;;;;;;8.22;100.00;95307.84;5080010;28;25079;-75
2022/12/22 15:05:30;;;;;;;9.70;2.92;;;;;;;8.19;100.00;95302.03;5080132;28;20812;-76
2022/12/22 15:07:57;;;;;;;9.90;3.10;;;;;;;8.32;100.00;95326.19;5082081;28;25022;-74
2022/12/22 15:10:27;;;;;;;8.47;2.77;;;;;;;8.20;100.00;95320.03;5078434;28;20782;-73
2022/12/22 15:12:58;;;;;;;9.68;2.80;;;;;;;8.22;100.00;95323.31;5077594;28;20760;-74
2022/12/22 15:15:25;;;;;;;8.85;3.03;;;;;;;8.18;100.00;95323.59;5077295;28;20661;-74
2022/12/22 15:17:53;;;;;;;9.00;3.00;;;;;;;8.19;100.00;95328.69;5077265;28;20849;-74
2022/12/22 15:20:23;;;;;;;12.73;2.75;;;;;;;8.17;100.00;95335.69;5069224;28;20810;-74
2022/12/22 15:22:50;;;;;;;9.05;2.88;;;;;;;8.07;100.00;95338.91;5081073;28;20787;-74
2022/12/22 15:25:19;;;;;;;6.87;2.60;;;;;;;8.10;100.00;95343.88;5082210;28;20771;-73
2022/12/22 15:27:45;;;;;;;11.90;2.80;;;;;;;8.06;100.00;95352.72;5076687;28;20762;-74
2022/12/22 15:30:14;;;;;;;7.93;2.63;;;;;;;8.09;100.00;95358.53;5073076;28;24429;-74